Time;durP1;ratioP1;P1;durP2;ratioP2;P2;SDS_P1;SDS_P2;PMS_P1;PMS_P2;Temp;Humidity;BMP_temperature;BMP_pressure;BME280_temperature;BME280_humidity;BME280_pressure;Samples;Min_cycle;Max_cycle;Signal;HPM_P1;HPM_P2
2021/01/24 00:00:23;;;;;;;;;;;3.50;1.00;;;;;;5013382;28;19925;-64
2021/01/24 00:02:49;;;;;;;;;;;3.50;1.00;;;;;;5013760;28;19921;-63
2021/01/24 00:05:16;;;;;;;;;;;3.40;1.00;;;;;;5012940;28;19932;-64
2021/01/24 00:07:42;;;;;;;;;;;3.40;83.70;;;;;;5013167;28;19928;-63
2021/01/24 00:10:08;;;;;;;;;;;3.30;99.90;;;;;;5013254;28;19921;-63
2021/01/24 00:12:34;;;;;;;;;;;3.30;99.90;;;;;;5013740;28;19925;-63
2021/01/24 00:15:00;;;;;;;;;;;3.20;1.00;;;;;;5013250;28;19926;-64
2021/01/24 00:17:26;;;;;;;;;;;3.20;1.00;;;;;;5013493;28;19921;-63
2021/01/24 00:19:52;;;;;;;;;;;3.20;1.00;;;;;;5013560;28;19967;-63
2021/01/24 00:22:19;;;;;;;;;;;3.20;71.20;;;;;;5013220;28;19921;-63
2021/01/24 00:24:45;;;;;;;;;;;3.10;99.90;;;;;;5013269;28;19929;-63
2021/01/24 00:27:11;;;;;;;;;;;3.10;99.90;;;;;;5013899;28;19968;-63
2021/01/24 00:29:37;;;;;;;;;;;3.00;99.90;;;;;;5014928;28;20293;-62
2021/01/24 00:32:03;;;;;;;;;;;2.90;99.90;;;;;;5013706;28;19921;-62
2021/01/24 00:34:29;;;;;;;;;;;2.80;99.90;;;;;;5013198;28;19976;-62
2021/01/24 00:36:55;;;;;;;;;;;2.70;99.90;;;;;;5012863;28;19922;-62
2021/01/24 00:39:22;;;;;;;;;;;2.60;99.90;;;;;;5013359;28;20298;-63
2021/01/24 00:41:48;;;;;;;;;;;2.60;1.00;;;;;;5013011;28;19925;-63
2021/01/24 00:44:14;;;;;;;;;;;2.60;43.40;;;;;;5013094;28;20565;-62
2021/01/24 00:46:40;;;;;;;;;;;2.60;99.90;;;;;;5013687;28;19976;-63
2021/01/24 00:49:06;;;;;;;;;;;2.60;99.90;;;;;;5013987;28;19925;-63
2021/01/24 00:51:32;;;;;;;;;;;2.60;99.90;;;;;;5013829;28;20373;-63
2021/01/24 00:53:59;;;;;;;;;;;2.50;1.00;;;;;;5013409;28;19980;-63
2021/01/24 00:56:25;;;;;;;;;;;2.50;1.00;;;;;;5013035;28;20301;-63
2021/01/24 00:58:51;;;;;;;;;;;2.50;1.00;;;;;;5013180;28;20370;-63
2021/01/24 01:01:17;;;;;;;;;;;2.40;27.60;;;;;;5012543;28;19972;-63
2021/01/24 01:03:43;;;;;;;;;;;2.40;99.90;;;;;;5012814;28;19921;-63
2021/01/24 01:06:09;;;;;;;;;;;2.30;99.90;;;;;;5012383;28;19921;-63
2021/01/24 01:08:35;;;;;;;;;;;2.20;99.90;;;;;;5016174;28;19921;-63
2021/01/24 01:11:01;;;;;;;;;;;2.20;99.90;;;;;;5016365;28;19921;-63
2021/01/24 01:13:28;;;;;;;;;;;2.20;99.90;;;;;;5016425;28;19921;-63
2021/01/24 01:15:54;;;;;;;;;;;2.10;1.00;;;;;;5016000;28;19931;-63
2021/01/24 01:18:20;;;;;;;;;;;2.10;1.00;;;;;;5016591;28;19925;-63
2021/01/24 01:20:47;;;;;;;;;;;2.10;1.00;;;;;;5016272;28;20362;-63
2021/01/24 01:23:13;;;;;;;;;;;2.00;1.00;;;;;;5016424;28;19928;-63
2021/01/24 01:25:39;;;;;;;;;;;2.00;51.00;;;;;;5015671;28;20294;-63
2021/01/24 01:28:05;;;;;;;;;;;1.90;99.90;;;;;;5016319;28;20348;-63
2021/01/24 01:30:32;;;;;;;;;;;1.90;99.90;;;;;;5015772;28;19922;-63
2021/01/24 01:32:58;;;;;;;;;;;1.90;99.90;;;;;;5016081;28;19928;-63
2021/01/24 01:35:24;;;;;;;;;;;1.90;99.90;;;;;;5015741;28;19922;-62
2021/01/24 01:37:50;;;;;;;;;;;1.90;99.90;;;;;;5015928;28;19999;-62
2021/01/24 01:40:16;;;;;;;;;;;1.90;99.90;;;;;;5015618;28;20587;-62
2021/01/24 01:42:42;;;;;;;;;;;1.90;99.90;;;;;;5015775;28;19921;-62
2021/01/24 01:45:08;;;;;;;;;;;1.90;99.90;;;;;;5015454;28;19979;-63
2021/01/24 01:47:35;;;;;;;;;;;1.80;99.90;;;;;;5015560;28;20047;-64
2021/01/24 01:50:02;;;;;;;;;;;1.80;1.00;;;;;;5015790;28;20032;-62
2021/01/24 01:52:28;;;;;;;;;;;1.80;1.00;;;;;;5015779;28;19983;-63
2021/01/24 01:54:55;;;;;;;;;;;1.80;1.00;;;;;;5015078;28;19926;-62
2021/01/24 01:57:21;;;;;;;;;;;1.80;1.00;;;;;;5015541;28;19921;-63
2021/01/24 01:59:47;;;;;;;;;;;1.70;99.90;;;;;;5015073;28;20341;-62
2021/01/24 02:02:18;;;;;;;;;;;1.70;99.90;;;;;;5015709;28;19921;-62
2021/01/24 02:04:49;;;;;;;;;;;1.60;99.90;;;;;;5015305;28;19932;-63
2021/01/24 02:07:17;;;;;;;;;;;1.60;99.90;;;;;;5015487;28;19976;-63
2021/01/24 02:09:45;;;;;;;;;;;1.40;99.90;;;;;;5015253;28;19921;-62
2021/01/24 02:12:16;;;;;;;;;;;1.40;99.90;;;;;;5014977;28;20401;-63
2021/01/24 02:14:48;;;;;;;;;;;1.30;99.90;;;;;;5015543;28;19921;-63
2021/01/24 02:17:18;;;;;;;;;;;1.30;99.90;;;;;;5014883;28;19929;-63
2021/01/24 02:19:54;;;;;;;;;;;1.20;99.90;;;;;;5015014;28;19926;-63
2021/01/24 02:22:20;;;;;;;;;;;1.10;99.90;;;;;;5015129;28;19922;-63
2021/01/24 02:24:49;;;;;;;;;;;1.00;99.90;;;;;;5014689;28;19928;-63
2021/01/24 02:27:18;;;;;;;;;;;1.00;99.90;;;;;;5015104;28;19925;-63
2021/01/24 02:29:48;;;;;;;;;;;1.00;99.90;;;;;;5015840;28;20378;-63
2021/01/24 02:32:18;;;;;;;;;;;1.00;99.90;;;;;;5015474;28;20305;-64
2021/01/24 02:34:44;;;;;;;;;;;0.90;1.00;;;;;;5014978;28;19922;-64
2021/01/24 02:37:11;;;;;;;;;;;0.90;99.90;;;;;;5014856;28;19922;-63
2021/01/24 02:39:38;;;;;;;;;;;0.90;1.00;;;;;;5015200;28;19925;-63
2021/01/24 02:42:04;;;;;;;;;;;0.80;1.00;;;;;;5015563;28;19925;-63
2021/01/24 02:44:31;;;;;;;;;;;0.80;1.00;;;;;;5015394;28;19929;-63
2021/01/24 02:46:57;;;;;;;;;;;0.80;1.00;;;;;;5015128;28;19972;-64
2021/01/24 02:49:24;;;;;;;;;;;0.80;1.00;;;;;;5014921;28;19921;-64
2021/01/24 02:51:51;;;;;;;;;;;0.80;1.00;;;;;;5014209;28;19944;-64
2021/01/24 02:54:18;;;;;;;;;;;0.80;92.50;;;;;;5014793;28;20015;-64
2021/01/24 02:56:44;;;;;;;;;;;0.70;99.90;;;;;;5014180;28;20104;-63
2021/01/24 02:59:10;;;;;;;;;;;0.70;99.90;;;;;;5014333;28;19928;-64
2021/01/24 03:01:37;;;;;;;;;;;0.70;99.90;;;;;;5014210;28;19928;-64
2021/01/24 03:04:03;;;;;;;;;;;0.70;99.90;;;;;;5014104;28;20298;-63
2021/01/24 03:06:30;;;;;;;;;;;0.70;99.90;;;;;;5014004;28;19921;-64
2021/01/24 03:08:56;;;;;;;;;;;0.70;99.90;;;;;;5014168;28;19954;-65
2021/01/24 03:11:23;;;;;;;;;;;0.70;1.00;;;;;;5014192;28;19922;-63
2021/01/24 03:13:50;;;;;;;;;;;0.70;1.00;;;;;;5014022;28;20374;-64
2021/01/24 03:16:17;;;;;;;;;;;0.70;1.00;;;;;;5013525;28;20582;-64
2021/01/24 03:18:44;;;;;;;;;;;0.70;1.00;;;;;;5013995;28;19922;-64
2021/01/24 03:21:10;;;;;;;;;;;0.70;1.00;;;;;;5013640;28;19926;-64
2021/01/24 03:23:38;;;;;;;;;;;0.70;1.00;;;;;;5014101;28;19929;-63
2021/01/24 03:26:05;;;;;;;;;;;0.70;1.00;;;;;;5013770;28;19929;-64
2021/01/24 03:28:31;;;;;;;;;;;0.70;1.00;;;;;;5013847;28;19921;-64
2021/01/24 03:30:57;;;;;;;;;;;0.70;1.00;;;;;;5013007;28;19972;-64
2021/01/24 03:33:23;;;;;;;;;;;0.80;22.10;;;;;;5013578;28;19921;-64
2021/01/24 03:35:49;;;;;;;;;;;0.70;40.40;;;;;;5013676;28;19933;-64
2021/01/24 03:38:15;;;;;;;;;;;0.70;58.40;;;;;;5013337;28;20370;-64
2021/01/24 03:40:42;;;;;;;;;;;0.70;58.70;;;;;;5013616;28;19922;-64
2021/01/24 03:43:08;;;;;;;;;;;0.70;58.50;;;;;;5013622;28;19925;-65
2021/01/24 03:45:34;;;;;;;;;;;0.70;58.90;;;;;;5013303;28;19921;-65
2021/01/24 03:48:00;;;;;;;;;;;0.70;75.10;;;;;;5013566;28;19921;-65
2021/01/24 03:50:26;;;;;;;;;;;0.70;99.90;;;;;;5014027;28;19922;-65
2021/01/24 03:52:52;;;;;;;;;;;0.70;99.90;;;;;;5014279;28;19921;-65
2021/01/24 03:55:18;;;;;;;;;;;0.70;99.90;;;;;;5013962;28;20271;-64
2021/01/24 03:57:45;;;;;;;;;;;0.70;99.90;;;;;;5014419;28;19921;-64
2021/01/24 04:00:12;;;;;;;;;;;0.70;99.90;;;;;;5013997;28;19967;-64
2021/01/24 04:02:38;;;;;;;;;;;0.70;99.90;;;;;;5013720;28;19921;-64
2021/01/24 04:05:04;;;;;;;;;;;0.70;99.90;;;;;;5013743;28;19921;-65
2021/01/24 04:07:30;;;;;;;;;;;0.70;99.90;;;;;;5013084;28;20373;-66
2021/01/24 04:09:56;;;;;;;;;;;0.70;99.90;;;;;;5013626;28;19921;-64
2021/01/24 04:12:22;;;;;;;;;;;0.70;99.90;;;;;;5013733;28;19921;-66
2021/01/24 04:14:49;;;;;;;;;;;0.70;99.90;;;;;;5012931;28;20374;-66
2021/01/24 04:17:15;;;;;;;;;;;0.70;99.90;;;;;;5012457;28;19973;-66
2021/01/24 04:19:41;;;;;;;;;;;0.70;99.90;;;;;;5013008;28;19925;-66
2021/01/24 04:22:07;;;;;;;;;;;0.70;99.90;;;;;;5012886;28;19925;-66
2021/01/24 04:24:33;;;;;;;;;;;0.70;99.90;;;;;;5012810;28;19922;-66
2021/01/24 04:26:59;;;;;;;;;;;0.70;99.90;;;;;;5012620;28;20016;-66
2021/01/24 04:29:25;;;;;;;;;;;0.70;99.90;;;;;;5012948;28;20279;-67
2021/01/24 04:31:52;;;;;;;;;;;0.70;99.90;;;;;;5012513;28;19929;-67
2021/01/24 04:34:18;;;;;;;;;;;0.60;99.90;;;;;;5012950;28;19921;-66
2021/01/24 04:36:44;;;;;;;;;;;0.60;99.90;;;;;;5012453;28;19972;-66
2021/01/24 04:39:10;;;;;;;;;;;0.70;99.90;;;;;;5013128;28;20329;-66
2021/01/24 04:41:37;;;;;;;;;;;0.60;99.90;;;;;;5013337;28;19925;-66
2021/01/24 04:44:03;;;;;;;;;;;0.60;99.90;;;;;;5013209;28;19922;-66
2021/01/24 04:46:30;;;;;;;;;;;0.60;99.90;;;;;;5012390;28;19928;-65
2021/01/24 04:48:58;;;;;;;;;;;0.60;99.90;;;;;;5012909;28;19925;-65
2021/01/24 04:51:24;;;;;;;;;;;0.60;99.90;;;;;;5012737;28;19921;-66
2021/01/24 04:53:50;;;;;;;;;;;0.60;99.90;;;;;;5012702;28;19925;-66
2021/01/24 04:56:16;;;;;;;;;;;0.60;99.90;;;;;;5012157;28;19922;-65
2021/01/24 04:58:42;;;;;;;;;;;0.60;99.90;;;;;;5012618;28;20302;-65
2021/01/24 05:01:08;;;;;;;;;;;0.60;99.90;;;;;;5011565;28;20056;-65
2021/01/24 05:03:35;;;;;;;;;;;0.50;99.90;;;;;;5012616;28;20408;-65
2021/01/24 05:06:02;;;;;;;;;;;0.60;99.90;;;;;;5012135;28;20413;-65
2021/01/24 05:08:30;;;;;;;;;;;0.60;99.90;;;;;;5012543;28;20374;-65
2021/01/24 05:11:01;;;;;;;;;;;0.60;99.90;;;;;;5012386;28;19959;-64
2021/01/24 05:13:27;;;;;;;;;;;0.60;99.90;;;;;;5012147;28;19921;-65
2021/01/24 05:15:55;;;;;;;;;;;0.60;99.90;;;;;;5012064;28;19925;-66
2021/01/24 05:18:21;;;;;;;;;;;0.60;99.90;;;;;;5012409;28;20390;-65
2021/01/24 05:20:47;;;;;;;;;;;0.50;99.90;;;;;;5012299;28;20290;-66
2021/01/24 05:23:14;;;;;;;;;;;0.50;99.90;;;;;;5012214;28;20417;-65
2021/01/24 05:25:40;;;;;;;;;;;0.50;99.90;;;;;;5011814;28;20279;-65
2021/01/24 05:28:16;;;;;;;;;;;0.50;99.90;;;;;;5011985;28;19925;-65
2021/01/24 05:30:42;;;;;;;;;;;0.50;99.90;;;;;;5011982;28;19921;-66
2021/01/24 05:33:08;;;;;;;;;;;0.50;99.90;;;;;;5012470;28;19929;-65
2021/01/24 05:35:45;;;;;;;;;;;0.50;99.90;;;;;;5011719;28;19922;-64
2021/01/24 05:38:11;;;;;;;;;;;0.50;99.90;;;;;;5012117;28;19925;-64
2021/01/24 05:40:38;;;;;;;;;;;0.50;99.90;;;;;;5012116;28;19921;-64
2021/01/24 05:43:04;;;;;;;;;;;0.50;99.90;;;;;;5012493;28;19925;-64
2021/01/24 05:45:36;;;;;;;;;;;0.50;99.90;;;;;;5012204;28;20389;-65
2021/01/24 05:48:04;;;;;;;;;;;0.50;99.90;;;;;;5012347;28;19921;-64
2021/01/24 05:50:34;;;;;;;;;;;0.50;99.90;;;;;;5012332;28;19944;-64
2021/01/24 05:53:03;;;;;;;;;;;0.50;99.90;;;;;;5012587;28;19928;-64
2021/01/24 05:55:29;;;;;;;;;;;0.50;99.90;;;;;;5016256;28;20188;-65
2021/01/24 05:57:56;;;;;;;;;;;0.50;1.00;;;;;;5015873;28;20374;-65
2021/01/24 06:00:23;;;;;;;;;;;0.50;1.00;;;;;;5015329;28;19921;-65
2021/01/24 06:02:49;;;;;;;;;;;0.50;1.00;;;;;;5015442;28;19929;-64
2021/01/24 06:05:15;;;;;;;;;;;0.50;1.00;;;;;;5014842;28;19971;-65
2021/01/24 06:07:41;;;;;;;;;;;0.50;1.00;;;;;;5015328;28;20333;-66
2021/01/24 06:10:08;;;;;;;;;;;0.50;1.00;;;;;;5015051;28;20385;-65
2021/01/24 06:12:35;;;;;;;;;;;0.50;1.00;;;;;;5015634;28;19964;-65
2021/01/24 06:15:03;;;;;;;;;;;0.50;1.00;;;;;;5015545;28;19933;-66
2021/01/24 06:17:30;;;;;;;;;;;0.50;1.00;;;;;;5015070;28;19921;-66
2021/01/24 06:19:58;;;;;;;;;;;0.50;1.00;;;;;;5015170;28;20396;-66
2021/01/24 06:22:26;;;;;;;;;;;0.50;1.00;;;;;;5015212;28;19921;-66
2021/01/24 06:24:55;;;;;;;;;;;0.50;1.00;;;;;;5015400;28;19967;-68
2021/01/24 06:27:23;;;;;;;;;;;0.50;1.00;;;;;;5015009;28;19921;-65
2021/01/24 06:29:50;;;;;;;;;;;0.50;1.00;;;;;;5014944;28;19921;-66
2021/01/24 06:32:27;;;;;;;;;;;0.50;1.00;;;;;;5014832;28;19921;-65
2021/01/24 06:34:54;;;;;;;;;;;0.50;1.00;;;;;;5014656;28;19929;-66
2021/01/24 06:37:21;;;;;;;;;;;0.50;1.00;;;;;;5014718;28;19922;-65
2021/01/24 06:39:51;;;;;;;;;;;0.50;1.00;;;;;;5014690;28;20279;-65
2021/01/24 06:42:37;;;;;;;;;;;0.50;1.00;;;;;;5014579;28;20374;-65
2021/01/24 06:45:03;;;;;;;;;;;0.50;1.00;;;;;;5014754;28;19921;-65
2021/01/24 06:47:37;;;;;;;;;;;0.50;1.00;;;;;;5014219;28;20370;-65
2021/01/24 06:50:03;;;;;;;;;;;0.50;1.00;;;;;;5014620;28;19967;-65
2021/01/24 06:52:29;;;;;;;;;;;0.50;1.00;;;;;;5014586;28;20157;-65
2021/01/24 06:54:56;;;;;;;;;;;0.50;1.00;;;;;;5014436;28;20417;-65
2021/01/24 06:57:30;;;;;;;;;;;0.50;1.00;;;;;;5013991;28;19921;-65
2021/01/24 07:00:11;;;;;;;;;;;0.50;1.00;;;;;;5014291;28;20096;-66
2021/01/24 07:02:38;;;;;;;;;;;0.50;1.00;;;;;;5013639;28;19922;-65
2021/01/24 07:05:11;;;;;;;;;;;0.50;1.00;;;;;;5009772;28;20561;-65
2021/01/24 07:07:38;;;;;;;;;;;0.50;1.00;;;;;;5014057;28;19922;-65
2021/01/24 07:10:05;;;;;;;;;;;0.50;1.00;;;;;;5013895;28;20344;-66
2021/01/24 07:12:39;;;;;;;;;;;0.60;1.00;;;;;;5014046;28;19928;-65
2021/01/24 07:15:06;;;;;;;;;;;0.60;1.00;;;;;;5014339;28;19925;-63
2021/01/24 07:17:32;;;;;;;;;;;0.60;1.00;;;;;;5013778;28;19922;-65
2021/01/24 07:20:00;;;;;;;;;;;0.60;1.00;;;;;;5013895;28;19929;-65
2021/01/24 07:22:26;;;;;;;;;;;0.60;1.00;;;;;;5013678;28;19921;-65
2021/01/24 07:24:53;;;;;;;;;;;0.60;1.00;;;;;;5013645;28;19921;-65
2021/01/24 07:27:19;;;;;;;;;;;0.60;1.00;;;;;;5013686;28;19922;-64
2021/01/24 07:29:45;;;;;;;;;;;0.60;1.00;;;;;;5013645;28;20294;-65
2021/01/24 07:32:13;;;;;;;;;;;0.60;1.00;;;;;;5013607;28;19991;-64
2021/01/24 07:34:39;;;;;;;;;;;0.50;1.00;;;;;;5013699;28;19922;-65
2021/01/24 07:37:06;;;;;;;;;;;0.50;1.00;;;;;;5012814;28;19937;-64
2021/01/24 07:39:33;;;;;;;;;;;0.60;13.10;;;;;;5013362;28;20342;-65
2021/01/24 07:41:59;;;;;;;;;;;0.60;43.70;;;;;;5013711;28;19928;-64
2021/01/24 07:44:26;;;;;;;;;;;0.70;69.00;;;;;;5013275;28;19928;-65
2021/01/24 07:46:52;;;;;;;;;;;0.70;69.00;;;;;;5013098;28;19921;-65
2021/01/24 07:49:18;;;;;;;;;;;0.70;69.00;;;;;;5013328;28;19921;-65
2021/01/24 07:51:44;;;;;;;;;;;0.70;69.30;;;;;;5013057;28;19925;-65
2021/01/24 07:54:11;;;;;;;;;;;0.70;73.70;;;;;;5013547;28;19932;-64
2021/01/24 07:56:37;;;;;;;;;;;0.70;69.30;;;;;;5012885;28;19921;-65
2021/01/24 07:59:03;;;;;;;;;;;0.70;69.40;;;;;;5013153;28;19922;-64
2021/01/24 08:01:30;;;;;;;;;;;0.70;76.40;;;;;;5012923;28;19925;-64
2021/01/24 08:03:59;;;;;;;;;;;0.80;98.30;;;;;;5001821;28;19925;-65
2021/01/24 08:06:26;;;;;;;;;;;0.80;74.10;;;;;;4992644;28;19921;-65
2021/01/24 08:08:52;;;;;;;;;;;0.80;70.40;;;;;;4993340;28;19929;-65
2021/01/24 08:11:19;;;;;;;;;;;0.80;69.20;;;;;;4994487;28;19925;-65
2021/01/24 08:13:45;;;;;;;;;;;0.80;81.20;;;;;;4996859;28;19993;-66
2021/01/24 08:16:12;;;;;;;;;;;0.80;94.20;;;;;;5000680;28;19925;-65
2021/01/24 08:18:39;;;;;;;;;;;0.90;93.70;;;;;;4993530;28;19929;-64
2021/01/24 08:21:05;;;;;;;;;;;0.90;99.90;;;;;;4992830;28;20345;-66
2021/01/24 08:23:31;;;;;;;;;;;0.90;97.70;;;;;;4993312;28;19922;-65
2021/01/24 08:25:58;;;;;;;;;;;0.90;96.00;;;;;;4993132;28;19953;-66
2021/01/24 08:28:25;;;;;;;;;;;0.90;69.40;;;;;;4993171;28;19941;-65
2021/01/24 08:30:52;;;;;;;;;;;0.90;69.30;;;;;;4993288;28;19932;-66
2021/01/24 08:33:19;;;;;;;;;;;0.90;84.90;;;;;;4992754;28;19929;-66
2021/01/24 08:35:45;;;;;;;;;;;0.90;99.90;;;;;;4992420;28;20305;-66
2021/01/24 08:38:12;;;;;;;;;;;1.00;99.90;;;;;;4993095;28;19922;-66
2021/01/24 08:40:42;;;;;;;;;;;1.00;99.90;;;;;;4992855;28;19922;-67
2021/01/24 08:43:08;;;;;;;;;;;1.00;99.90;;;;;;4992817;28;19929;-66
2021/01/24 08:45:35;;;;;;;;;;;1.10;99.90;;;;;;4992366;28;19921;-65
2021/01/24 08:48:02;;;;;;;;;;;1.10;99.90;;;;;;4993058;28;19928;-65
2021/01/24 08:50:30;;;;;;;;;;;1.10;98.00;;;;;;4993200;28;19933;-65
2021/01/24 08:52:57;;;;;;;;;;;1.00;69.40;;;;;;4993153;28;19926;-65
2021/01/24 08:55:23;;;;;;;;;;;1.00;66.70;;;;;;4992860;28;19926;-65
2021/01/24 08:57:49;;;;;;;;;;;1.00;38.70;;;;;;4992439;28;19945;-65
2021/01/24 09:00:16;;;;;;;;;;;1.00;69.30;;;;;;4992696;28;19926;-65
2021/01/24 09:02:43;;;;;;;;;;;1.00;69.30;;;;;;4992580;28;19922;-65
2021/01/24 09:05:10;;;;;;;;;;;1.00;69.20;;;;;;4992561;28;19991;-66
2021/01/24 09:07:39;;;;;;;;;;;1.00;69.30;;;;;;4992409;28;19922;-66
2021/01/24 09:10:20;;;;;;;;;;;1.00;69.60;;;;;;4992542;28;19984;-66
2021/01/24 09:12:46;;;;;;;;;;;1.00;94.30;;;;;;4990125;28;20020;-66
2021/01/24 09:15:12;;;;;;;;;;;1.30;99.90;;;;;;4991976;28;20357;-65
2021/01/24 09:17:39;;;;;;;;;;;1.90;99.90;;;;;;4992508;28;19922;-65
2021/01/24 09:20:07;;;;;;;;;;;1.90;1.00;;;;;;4992687;28;19930;-65
2021/01/24 09:22:33;;;;;;;;;;;1.70;99.90;;;;;;4992621;28;19922;-65
2021/01/24 09:24:59;;;;;;;;;;;1.40;99.90;;;;;;4992590;28;19929;-65
2021/01/24 09:27:25;;;;;;;;;;;1.50;99.90;;;;;;4992409;28;19969;-64
2021/01/24 09:29:51;;;;;;;;;;;1.60;99.90;;;;;;4996291;28;20588;-65
2021/01/24 09:32:17;;;;;;;;;;;1.60;99.90;;;;;;4996612;28;19926;-64
2021/01/24 09:34:43;;;;;;;;;;;1.50;69.70;;;;;;4996511;28;19926;-65
2021/01/24 09:37:10;;;;;;;;;;;1.50;2.80;;;;;;4996746;28;19984;-65
2021/01/24 09:39:36;;;;;;;;;;;1.50;1.00;;;;;;4996678;28;20337;-65
2021/01/24 09:42:02;;;;;;;;;;;1.50;1.00;;;;;;4996264;28;19922;-65
2021/01/24 09:44:28;;;;;;;;;;;1.50;1.00;;;;;;4995936;28;19973;-62
2021/01/24 09:46:54;;;;;;;;;;;1.60;1.00;;;;;;4996219;28;19926;-63
2021/01/24 09:49:20;;;;;;;;;;;1.60;1.00;;;;;;4996336;28;19921;-66
2021/01/24 09:51:46;;;;;;;;;;;1.60;1.00;;;;;;4995901;28;19929;-63
2021/01/24 09:54:14;;;;;;;;;;;1.60;1.00;;;;;;4995799;28;19969;-64
2021/01/24 09:56:40;;;;;;;;;;;1.50;99.90;;;;;;4996831;28;19921;-65
2021/01/24 09:59:06;;;;;;;;;;;1.60;99.90;;;;;;4995494;28;19922;-65
2021/01/24 10:01:32;;;;;;;;;;;1.60;99.90;;;;;;4996037;28;20371;-68
2021/01/24 10:03:58;;;;;;;;;;;1.70;99.90;;;;;;5010062;28;19921;-67
2021/01/24 10:06:25;;;;;;;;;;;1.60;99.90;;;;;;5015100;28;19929;-67
2021/01/24 10:08:51;;;;;;;;;;;1.50;99.90;;;;;;5014329;28;20369;-68
2021/01/24 10:11:21;;;;;;;;;;;1.50;99.90;;;;;;5015174;28;19921;-65
2021/01/24 10:13:47;;;;;;;;;;;1.50;99.90;;;;;;5015081;28;19964;-65
2021/01/24 10:16:13;;;;;;;;;;;1.50;99.90;;;;;;5014862;28;19975;-64
2021/01/24 10:18:40;;;;;;;;;;;1.60;99.90;;;;;;5015250;28;19921;-67
2021/01/24 10:21:06;;;;;;;;;;;1.70;99.90;;;;;;5015114;28;19952;-67
2021/01/24 10:23:32;;;;;;;;;;;1.70;99.90;;;;;;5015159;28;19921;-67
2021/01/24 10:25:58;;;;;;;;;;;1.80;99.90;;;;;;5014403;28;19941;-68
2021/01/24 10:28:26;;;;;;;;;;;1.80;99.90;;;;;;5015051;28;19957;-66
2021/01/24 10:30:53;;;;;;;;;;;1.80;8.70;;;;;;5015244;28;19921;-67
2021/01/24 10:33:19;;;;;;;;;;;1.60;99.90;;;;;;5014425;28;19928;-68
2021/01/24 10:35:45;;;;;;;;;;;1.60;99.90;;;;;;5014542;28;19925;-67
2021/01/24 10:38:11;;;;;;;;;;;1.60;99.90;;;;;;5015084;28;20310;-66
2021/01/24 10:40:38;;;;;;;;;;;1.70;99.90;;;;;;5014323;28;20398;-67
2021/01/24 10:43:04;;;;;;;;;;;1.80;99.90;;;;;;5016559;28;19925;-66
2021/01/24 10:45:31;;;;;;;;;;;1.70;99.90;;;;;;5018049;28;19970;-67
2021/01/24 10:47:57;;;;;;;;;;;1.60;32.60;;;;;;5020288;28;19925;-66
2021/01/24 10:50:23;;;;;;;;;;;1.60;94.50;;;;;;5014160;28;19929;-67
2021/01/24 10:52:49;;;;;;;;;;;1.60;95.90;;;;;;5014612;28;19921;-67
2021/01/24 10:55:15;;;;;;;;;;;1.70;99.90;;;;;;5014183;28;19928;-67
2021/01/24 10:57:41;;;;;;;;;;;1.70;99.90;;;;;;5014830;28;20446;-67
2021/01/24 11:00:08;;;;;;;;;;;1.60;98.10;;;;;;5014461;28;19921;-66
2021/01/24 11:02:35;;;;;;;;;;;1.70;25.10;;;;;;5014615;28;20279;-66
2021/01/24 11:05:02;;;;;;;;;;;1.70;97.80;;;;;;5014328;28;20429;-67
2021/01/24 11:07:28;;;;;;;;;;;1.80;56.80;;;;;;5014190;28;19927;-66
2021/01/24 11:09:54;;;;;;;;;;;1.80;1.00;;;;;;5018843;28;20418;-67
2021/01/24 11:12:20;;;;;;;;;;;1.80;1.00;;;;;;5014788;28;19944;-67
2021/01/24 11:14:46;;;;;;;;;;;1.90;1.00;;;;;;5013838;28;19921;-66
2021/01/24 11:17:12;;;;;;;;;;;2.00;1.00;;;;;;5014502;28;19925;-67
2021/01/24 11:19:39;;;;;;;;;;;2.00;1.00;;;;;;5014678;28;19921;-66
2021/01/24 11:22:05;;;;;;;;;;;1.80;93.50;;;;;;5014284;28;19927;-67
2021/01/24 11:24:31;;;;;;;;;;;1.70;97.90;;;;;;5014201;28;19928;-67
2021/01/24 11:26:57;;;;;;;;;;;1.60;99.90;;;;;;5014549;28;19928;-67
2021/01/24 11:29:24;;;;;;;;;;;1.60;99.90;;;;;;5014136;28;19967;-67
2021/01/24 11:31:50;;;;;;;;;;;1.60;1.00;;;;;;5015169;28;19921;-66
2021/01/24 11:34:16;;;;;;;;;;;1.60;1.00;;;;;;5015741;28;19928;-66
2021/01/24 11:36:42;;;;;;;;;;;1.60;1.00;;;;;;5015081;28;19926;-66
2021/01/24 11:39:08;;;;;;;;;;;1.70;1.00;;;;;;5014837;28;20279;-66
2021/01/24 11:41:35;;;;;;;;;;;1.60;1.00;;;;;;5014967;28;19958;-67
2021/01/24 11:44:01;;;;;;;;;;;1.60;1.00;;;;;;5014287;28;19929;-67
2021/01/24 11:46:27;;;;;;;;;;;1.70;99.90;;;;;;5013173;28;20408;-67
2021/01/24 11:48:53;;;;;;;;;;;1.70;99.90;;;;;;5014356;28;19922;-67
2021/01/24 11:51:19;;;;;;;;;;;1.70;99.90;;;;;;5013386;28;20371;-68
2021/01/24 11:53:46;;;;;;;;;;;1.80;99.90;;;;;;5014027;28;19929;-68
2021/01/24 11:56:12;;;;;;;;;;;1.70;47.40;;;;;;5013554;28;19968;-67
2021/01/24 11:58:38;;;;;;;;;;;1.70;1.00;;;;;;5013754;28;19975;-66
2021/01/24 12:01:04;;;;;;;;;;;1.50;1.00;;;;;;5013706;28;19921;-67
2021/01/24 12:03:30;;;;;;;;;;;1.60;74.20;;;;;;5013442;28;19928;-67
2021/01/24 12:05:57;;;;;;;;;;;1.60;99.90;;;;;;5013541;28;19984;-67
2021/01/24 12:08:23;;;;;;;;;;;1.70;99.90;;;;;;5013860;28;19932;-67
2021/01/24 12:10:50;;;;;;;;;;;1.80;99.90;;;;;;5013255;28;19921;-67
2021/01/24 12:13:16;;;;;;;;;;;1.70;99.90;;;;;;5013572;28;19928;-67
2021/01/24 12:15:42;;;;;;;;;;;1.70;45.80;;;;;;5013431;28;19921;-67
2021/01/24 12:18:08;;;;;;;;;;;1.60;1.00;;;;;;5012975;28;20020;-67
2021/01/24 12:20:34;;;;;;;;;;;1.80;99.90;;;;;;5013634;28;19991;-66
2021/01/24 12:23:00;;;;;;;;;;;1.70;88.10;;;;;;5013813;28;19921;-66
2021/01/24 12:25:26;;;;;;;;;;;1.60;1.00;;;;;;5013155;28;19928;-65
2021/01/24 12:27:53;;;;;;;;;;;1.60;36.60;;;;;;5013146;28;19929;-66
2021/01/24 12:30:19;;;;;;;;;;;1.50;57.20;;;;;;5012978;28;19975;-66
2021/01/24 12:32:45;;;;;;;;;;;1.50;99.90;;;;;;5013363;28;20445;-66
2021/01/24 12:35:12;;;;;;;;;;;1.60;99.90;;;;;;5012830;28;19933;-70
2021/01/24 12:37:38;;;;;;;;;;;1.60;99.90;;;;;;5012949;28;19921;-67
2021/01/24 12:40:05;;;;;;;;;;;1.70;99.90;;;;;;5012873;28;19922;-66
2021/01/24 12:42:31;;;;;;;;;;;1.70;99.90;;;;;;5012623;28;19967;-66
2021/01/24 12:44:58;;;;;;;;;;;1.80;99.90;;;;;;5008838;28;19925;-66
2021/01/24 12:47:24;;;;;;;;;;;1.90;99.90;;;;;;5011723;28;19922;-66
2021/01/24 12:49:50;;;;;;;;;;;2.00;99.90;;;;;;5012735;28;19925;-66
2021/01/24 12:52:16;;;;;;;;;;;2.10;1.00;;;;;;5012749;28;19933;-66
2021/01/24 12:54:42;;;;;;;;;;;2.20;1.00;;;;;;5013061;28;20297;-65
2021/01/24 12:57:08;;;;;;;;;;;2.20;99.90;;;;;;5013491;28;20144;-66
2021/01/24 12:59:34;;;;;;;;;;;2.20;83.00;;;;;;5015655;28;20351;-65
2021/01/24 13:02:04;;;;;;;;;;;2.20;1.00;;;;;;5015199;28;20325;-66
2021/01/24 13:04:30;;;;;;;;;;;2.00;99.90;;;;;;5020017;28;19960;-66
2021/01/24 13:06:56;;;;;;;;;;;1.90;99.90;;;;;;5019238;28;20271;-67
2021/01/24 13:09:22;;;;;;;;;;;1.90;99.90;;;;;;5018169;28;19921;-65
2021/01/24 13:11:48;;;;;;;;;;;1.90;1.00;;;;;;5017842;28;19933;-67
2021/01/24 13:14:14;;;;;;;;;;;1.80;99.90;;;;;;5018372;28;19925;-65
2021/01/24 13:16:40;;;;;;;;;;;1.80;1.00;;;;;;5017597;28;19921;-66
2021/01/24 13:19:07;;;;;;;;;;;2.00;92.60;;;;;;5018533;28;19922;-66
2021/01/24 13:21:33;;;;;;;;;;;2.10;17.00;;;;;;5017709;28;19976;-65
2021/01/24 13:23:59;;;;;;;;;;;2.00;99.90;;;;;;5017117;28;19921;-65
2021/01/24 13:26:25;;;;;;;;;;;2.10;1.00;;;;;;5016939;28;20332;-66
2021/01/24 13:28:52;;;;;;;;;;;2.20;1.00;;;;;;5016912;28;19972;-66
2021/01/24 13:31:20;;;;;;;;;;;2.20;99.90;;;;;;5016559;28;19969;-65
2021/01/24 13:33:46;;;;;;;;;;;2.20;99.90;;;;;;5016819;28;19932;-66
2021/01/24 13:36:13;;;;;;;;;;;2.20;99.90;;;;;;5019171;28;19921;-66
2021/01/24 13:38:39;;;;;;;;;;;2.20;99.90;;;;;;5016076;28;19975;-66
2021/01/24 13:41:05;;;;;;;;;;;2.10;99.90;;;;;;5016356;28;19929;-65
2021/01/24 13:43:32;;;;;;;;;;;2.10;99.90;;;;;;5016471;28;19925;-65
2021/01/24 13:45:58;;;;;;;;;;;2.00;99.90;;;;;;5015950;28;19921;-66
2021/01/24 13:48:24;;;;;;;;;;;2.00;99.90;;;;;;5016353;28;19945;-68
2021/01/24 13:50:50;;;;;;;;;;;2.00;1.00;;;;;;5016294;28;19921;-68
2021/01/24 13:53:16;;;;;;;;;;;2.00;99.90;;;;;;5015966;28;20404;-65
2021/01/24 13:55:43;;;;;;;;;;;2.00;99.90;;;;;;5020245;28;19921;-72
2021/01/24 13:58:09;;;;;;;;;;;2.00;99.90;;;;;;5017537;28;19921;-66
2021/01/24 14:00:35;;;;;;;;;;;1.90;99.90;;;;;;5015858;28;20405;-67
2021/01/24 14:03:01;;;;;;;;;;;1.80;99.90;;;;;;5016267;28;19922;-66
2021/01/24 14:05:27;;;;;;;;;;;1.80;21.10;;;;;;5016253;28;19925;-67
2021/01/24 14:07:53;;;;;;;;;;;1.80;99.90;;;;;;5015996;28;20354;-69
2021/01/24 14:10:20;;;;;;;;;;;1.80;99.90;;;;;;5015995;28;19921;-68
2021/01/24 14:12:46;;;;;;;;;;;1.90;99.90;;;;;;5016148;28;19983;-67
2021/01/24 14:15:12;;;;;;;;;;;2.00;99.90;;;;;;5015108;28;19925;-67
2021/01/24 14:17:39;;;;;;;;;;;2.10;99.90;;;;;;5015567;28;19952;-67
2021/01/24 14:20:06;;;;;;;;;;;2.00;96.60;;;;;;5015691;28;20282;-68
2021/01/24 14:22:32;;;;;;;;;;;2.00;88.90;;;;;;5015582;28;20695;-68
2021/01/24 14:24:58;;;;;;;;;;;2.00;1.00;;;;;;5015743;28;20389;-66
2021/01/24 14:27:25;;;;;;;;;;;1.90;1.00;;;;;;5015729;28;20551;-66
2021/01/24 14:29:51;;;;;;;;;;;1.90;1.00;;;;;;5015428;28;19921;-66